Hauptseite
METAR-TAF:

METAR-TAF

Flughäfen :

Brighton, England

Flugplatz Shoreham

Breite: 50-50N, Länge: 000-17W, Höhe: 2 m

Beobachtung

Neuester Wetterbericht von vor 46 Minuten, um 12:20 UTC
Wind 3 kt aus Südwest
Temperatur 7°C
Luftfeuchtigkeit 100%
Luftdruck 998 hPa
Sichtweite: 1600 m
Durchbrochene Bewölkung in der Höhe von 200 ft
Leichtregen, feuchter Dunst

METAR: EGKA 201220Z 23003KT 1600 -RA BR BKN002 07/07 Q0998

Zeit: 13:06 (13:06 UTC)

Prognose

Neuester Wetterbericht von vor 2 Stunden und 1 Minuten, um 11:05 UTC
Gültige Prognose vom 20 um 12 UTC bis 20 um 20 UTC
Wind 4 kt aus unterschiedlichen Richtungen
Sichtweite: 5000 m
Durchbrochene Bewölkung in der Höhe von 600 ft
Leichtregen
Zeitweise
vom 20 um 12 UTC bis 20 um 20 UTC
Sichtweite: 1200 m
Durchbrochene Bewölkung in der Höhe von 300 ft
Sprühregen, feuchter Dunst

TAF: EGKA 201105Z 2012/2020 VRB04KT 5000 -RA BKN006 TEMPO 2012/2020 1200 DZ BR BKN003

Wetterbeobachtungen und Prognosen von mehr als 4000 Flughäfen (METAR und TAF Bericht).

Die verfügbaren Stationen werden durch gelbe und rote Markierungen auf der Karte dargestellt.

Führen Sie die Maus auf sie, um den Namen der Station zu sehen.

Darauf klicken, um die Beobachtung von Wetterbeobachtungen und Prognosen zu sehen.

Um die Karte zu ändern : klicken Sie auf den grünen Tasten mit einem schwarzen Kreuz Zum Vergrößern, auf den grünen Button mit einem Gedankenstrich zu verkleinern, oder auf die grünen Pfeile für benachbarte Karten.


METAR-TAF: